Time;durP1;ratioP1;P1;durP2;ratioP2;P2;SDS_P1;SDS_P2;PMS_P1;PMS_P2;Temp;Humidity;BMP_temperature;BMP_pressure;BME280_temperature;BME280_humidity;BME280_pressure;Samples;Min_cycle;Max_cycle;Signal;HPM_P1;HPM_P2
2021/07/08 00:02:40;;;;;;;6.65;2.58;;;;;;;19.82;77.04;100530.26;1770082;81;21362;-78
2021/07/08 00:05:49;;;;;;;6.60;2.50;;;;;;;19.79;77.04;100532.94;1771169;81;21172;-78
2021/07/08 00:08:50;;;;;;;9.43;2.15;;;;;;;19.76;76.95;100532.04;1771092;81;21831;-78
2021/07/08 00:11:42;;;;;;;9.90;2.25;;;;;;;19.75;76.86;100540.03;1770720;81;21232;-77
2021/07/08 00:14:27;;;;;;;8.05;2.52;;;;;;;19.72;76.80;100533.58;1768633;81;21220;-78
2021/07/08 00:17:20;;;;;;;9.10;2.52;;;;;;;19.69;76.92;100534.56;1771107;81;21228;-78
2021/07/08 00:20:11;;;;;;;6.22;2.35;;;;;;;19.68;76.71;100542.59;1771185;81;21295;-78
2021/07/08 00:23:03;;;;;;;12.00;2.60;;;;;;;19.65;76.59;100541.95;1769904;81;21296;-78
2021/07/08 00:25:51;;;;;;;8.50;2.33;;;;;;;19.64;76.47;100550.52;1771156;81;21299;-78
2021/07/08 00:28:43;;;;;;;4.80;2.27;;;;;;;19.62;76.31;100551.30;1769933;81;21339;-77
2021/07/08 00:31:49;;;;;;;5.95;2.33;;;;;;;19.57;76.16;100547.80;1770864;81;21272;-77
2021/07/08 00:34:54;;;;;;;9.55;2.30;;;;;;;19.57;76.29;100547.80;1771172;81;21299;-78
2021/07/08 00:38:00;;;;;;;3.70;1.90;;;;;;;19.55;76.30;100553.25;1771101;81;21284;-77
2021/07/08 00:41:06;;;;;;;10.82;3.10;;;;;;;19.51;76.22;100558.40;1771220;81;21303;-77
2021/07/08 00:44:11;;;;;;;2.42;2.20;;;;;;;19.48;76.33;100556.11;1769847;81;21330;-78
2021/07/08 00:47:17;;;;;;;3.58;1.90;;;;;;;19.46;76.28;100556.86;1771141;81;21188;-77
2021/07/08 00:50:24;;;;;;;10.20;2.17;;;;;;;19.43;76.13;100563.39;1771093;81;21173;-77
2021/07/08 00:53:30;;;;;;;5.95;1.87;;;;;;;19.38;75.75;100555.75;1772106;81;21295;-77
2021/07/08 00:56:37;;;;;;;11.83;2.50;;;;;;;19.35;75.49;100554.84;1771788;81;21295;-77
2021/07/08 00:59:54;;;;;;;8.78;2.35;;;;;;;19.33;75.17;100558.36;1770873;81;21877;-78
2021/07/08 01:03:07;;;;;;;4.42;1.98;;;;;;;19.33;74.96;100562.52;1770486;81;21770;-76
2021/07/08 01:06:09;;;;;;;2.75;2.00;;;;;;;19.32;74.62;100565.00;1771168;81;21311;-77
2021/07/08 01:09:16;;;;;;;7.65;2.20;;;;;;;19.29;74.68;100564.93;1771349;81;21204;-77
2021/07/08 01:12:21;;;;;;;5.75;2.05;;;;;;;19.28;74.63;100563.75;1770293;81;21326;-77
2021/07/08 01:15:27;;;;;;;3.72;2.22;;;;;;;19.25;74.44;100570.62;1774435;80;21255;-77
2021/07/08 01:18:32;;;;;;;5.72;2.27;;;;;;;19.22;74.25;100572.98;1779354;80;21184;-77
2021/07/08 01:21:39;;;;;;;16.23;2.50;;;;;;;19.20;74.20;100572.37;1779223;80;21184;-77
2021/07/08 01:24:45;;;;;;;12.37;2.70;;;;;;;19.18;74.25;100576.73;1778498;80;21307;-77
2021/07/08 01:27:50;;;;;;;14.85;2.90;;;;;;;19.15;74.43;100582.76;1779360;80;21295;-77
2021/07/08 01:30:56;;;;;;;4.55;1.80;;;;;;;19.10;74.47;100587.59;1779552;80;21307;-77
2021/07/08 01:34:02;;;;;;;11.78;2.40;;;;;;;19.05;74.67;100594.33;1778860;80;21335;-77
2021/07/08 01:37:07;;;;;;;8.83;2.10;;;;;;;19.00;74.86;100595.54;1778021;80;21807;-78
2021/07/08 01:40:15;;;;;;;6.55;1.98;;;;;;;18.95;75.16;100583.44;1777808;80;21196;-78
2021/07/08 01:43:21;;;;;;;4.70;2.10;;;;;;;18.90;75.49;100585.49;1778770;80;21307;-77
2021/07/08 01:46:27;;;;;;;6.97;2.42;;;;;;;18.85;75.74;100593.63;1780407;80;21200;-78
2021/07/08 01:49:33;;;;;;;5.78;2.05;;;;;;;18.82;75.88;100588.52;1779834;80;21840;-78
2021/07/08 01:52:38;;;;;;;7.20;2.50;;;;;;;18.79;76.15;100590.38;1779269;80;21300;-77
2021/07/08 01:55:44;;;;;;;4.20;2.08;;;;;;;18.76;76.14;100588.05;1779348;80;21252;-77
2021/07/08 01:58:52;;;;;;;3.98;1.90;;;;;;;18.72;76.21;100597.87;1777943;80;21385;-78
2021/07/08 02:01:59;;;;;;;14.93;2.67;;;;;;;18.68;76.27;100593.81;1778296;80;21826;-77
2021/07/08 02:05:04;;;;;;;4.78;1.92;;;;;;;18.66;76.19;100602.35;1779456;80;21715;-77
2021/07/08 02:08:09;;;;;;;4.12;2.10;;;;;;;18.63;76.14;100605.56;1779417;80;21724;-77
2021/07/08 02:11:16;;;;;;;4.00;2.10;;;;;;;18.60;76.13;100599.94;1779179;80;21228;-77
2021/07/08 02:14:22;;;;;;;10.58;2.30;;;;;;;18.68;75.97;100602.12;1778511;80;21826;-77
2021/07/08 02:17:27;;;;;;;7.60;2.20;;;;;;;18.87;75.45;100602.59;1776584;81;21302;-78
2021/07/08 02:20:34;;;;;;;5.25;1.72;;;;;;;19.11;74.62;100614.78;1775277;81;21517;-78
2021/07/08 02:23:40;;;;;;;7.60;2.05;;;;;;;19.36;73.95;100613.39;1776448;81;21240;-78
2021/07/08 02:26:45;;;;;;;5.03;1.82;;;;;;;19.63;73.09;100617.66;1776731;81;21752;-78
2021/07/08 02:29:51;;;;;;;7.67;2.20;;;;;;;19.91;72.07;100619.08;1775642;81;21323;-78
2021/07/08 02:32:58;;;;;;;6.60;2.12;;;;;;;20.18;71.05;100622.38;1776732;81;21339;-78
2021/07/08 02:36:05;;;;;;;12.13;1.90;;;;;;;20.47;70.13;100629.12;1776691;81;21291;-78
2021/07/08 02:39:12;;;;;;;5.80;2.10;;;;;;;20.78;68.69;100623.03;1776634;81;21287;-77
2021/07/08 02:42:18;;;;;;;8.70;2.65;;;;;;;21.03;67.71;100629.30;1777205;81;21295;-78
2021/07/08 02:45:23;;;;;;;6.37;1.87;;;;;;;21.30;66.83;100631.09;1775115;81;21327;-78
2021/07/08 02:48:29;;;;;;;8.78;1.75;;;;;;;21.56;66.29;100627.05;1777247;81;21335;-78
2021/07/08 02:51:35;;;;;;;4.62;1.70;;;;;;;21.84;65.44;100629.66;1777669;81;21275;-78
2021/07/08 02:54:40;;;;;;;4.28;1.65;;;;;;;22.06;64.78;100630.70;1777091;81;21326;-78
2021/07/08 02:57:47;;;;;;;7.58;2.02;;;;;;;22.29;64.21;100636.81;1776729;81;21366;-78
2021/07/08 03:00:53;;;;;;;13.78;2.10;;;;;;;22.50;63.28;100630.30;1775694;81;21373;-78
2021/07/08 03:03:59;;;;;;;10.85;2.10;;;;;;;22.76;62.79;100640.00;1776495;81;21302;-78
2021/07/08 03:07:05;;;;;;;9.05;1.80;;;;;;;22.88;61.07;100642.20;1776632;81;21296;-78
2021/07/08 03:10:11;;;;;;;10.28;1.82;;;;;;;22.91;61.06;100647.30;1776727;81;21351;-78
2021/07/08 03:13:17;;;;;;;6.62;2.20;;;;;;;23.02;61.11;100642.78;1776593;81;21350;-77
2021/07/08 03:16:21;;;;;;;11.90;2.40;;;;;;;23.06;60.44;100642.03;1772979;80;21933;-78
2021/07/08 03:19:28;;;;;;;8.40;2.10;;;;;;;22.99;60.03;100649.69;1769499;81;21185;-78
2021/07/08 03:22:35;;;;;;;4.40;2.02;;;;;;;22.79;60.35;100640.91;1771394;81;21228;-78
2021/07/08 03:25:40;;;;;;;9.55;2.15;;;;;;;22.64;60.41;100641.45;1770077;81;21184;-77
2021/07/08 03:28:46;;;;;;;7.72;2.00;;;;;;;22.56;60.84;100642.69;1771245;81;21300;-78
2021/07/08 03:31:51;;;;;;;4.10;2.10;;;;;;;22.59;60.65;100646.94;1769994;81;21375;-77
2021/07/08 03:34:57;;;;;;;6.75;1.85;;;;;;;22.51;60.58;100645.38;1770509;81;21388;-78
2021/07/08 03:38:03;;;;;;;5.83;2.10;;;;;;;22.31;60.89;100642.16;1772241;81;21208;-77
2021/07/08 03:41:08;;;;;;;6.78;2.40;;;;;;;22.10;61.50;100648.62;1771652;81;21193;-78
2021/07/08 03:44:13;;;;;;;4.45;1.70;;;;;;;22.05;61.47;100648.52;1771068;81;21185;-78
2021/07/08 03:47:19;;;;;;;4.45;2.05;;;;;;;22.07;61.40;100659.44;1769745;81;21331;-78
2021/07/08 03:50:24;;;;;;;8.00;2.15;;;;;;;22.14;60.89;100661.02;1770999;81;21296;-78
2021/07/08 03:53:31;;;;;;;5.33;2.00;;;;;;;22.13;61.50;100659.33;1771134;81;21827;-78
2021/07/08 03:56:37;;;;;;;5.03;2.00;;;;;;;22.03;61.54;100661.84;1769683;81;21878;-78
2021/07/08 03:59:42;;;;;;;7.17;2.10;;;;;;;21.79;61.86;100661.56;1771165;81;21295;-78
2021/07/08 04:02:48;;;;;;;5.97;2.12;;;;;;;21.56;62.68;100671.58;1769637;81;21382;-78
2021/07/08 04:05:54;;;;;;;4.10;2.02;;;;;;;21.59;63.10;100669.69;1769656;81;21296;-78
2021/07/08 04:08:59;;;;;;;7.40;1.90;;;;;;;21.80;62.55;100674.38;1771253;81;21193;-78
2021/07/08 04:12:04;;;;;;;3.60;2.00;;;;;;;22.00;61.78;100675.41;1770406;81;21358;-78
2021/07/08 04:15:09;;;;;;;4.80;1.87;;;;;;;22.12;61.20;100685.49;1770922;81;21331;-78
2021/07/08 04:18:14;;;;;;;6.55;2.50;;;;;;;22.18;60.94;100677.55;1769794;80;21574;-77
2021/07/08 04:21:20;;;;;;;7.60;2.00;;;;;;;22.22;60.38;100681.25;1769668;81;21291;-79
2021/07/08 04:24:25;;;;;;;3.60;1.92;;;;;;;22.25;60.38;100684.91;1771137;81;21303;-79
2021/07/08 04:27:32;;;;;;;6.22;1.87;;;;;;;22.34;59.65;100691.81;1769654;81;21189;-78
2021/07/08 04:30:37;;;;;;;3.95;1.80;;;;;;;22.41;59.91;100690.59;1771174;81;21164;-78
2021/07/08 04:33:46;;;;;;;7.58;2.15;;;;;;;22.55;59.81;100695.36;1771127;81;21314;-78
2021/07/08 04:36:51;;;;;;;7.95;2.40;;;;;;;22.67;59.21;100695.31;1769825;81;21550;-78
2021/07/08 04:39:57;;;;;;;5.35;1.80;;;;;;;22.75;58.45;100696.33;1769755;81;21338;-78
2021/07/08 04:43:03;;;;;;;3.08;1.45;;;;;;;22.76;58.32;100698.01;1769543;81;21303;-78
2021/07/08 04:46:08;;;;;;;7.65;2.02;;;;;;;22.79;57.74;100705.89;1770542;81;21307;-78
2021/07/08 04:49:13;;;;;;;2.85;1.72;;;;;;;22.84;57.71;100702.36;1771094;81;21204;-78
2021/07/08 04:52:18;;;;;;;9.23;2.00;;;;;;;22.89;57.60;100714.49;1771159;81;21748;-78
2021/07/08 04:55:27;;;;;;;7.53;2.15;;;;;;;22.95;57.21;100703.73;1770949;81;21731;-78
2021/07/08 04:58:33;;;;;;;4.67;1.70;;;;;;;22.99;56.75;100705.48;1770982;81;21295;-77
2021/07/08 05:01:39;;;;;;;4.65;1.75;;;;;;;23.07;57.89;100709.83;1770721;81;21287;-78
2021/07/08 05:04:46;;;;;;;4.78;1.65;;;;;;;23.10;56.57;100717.67;1771097;81;21295;-78
2021/07/08 05:07:54;;;;;;;4.72;1.82;;;;;;;22.91;56.76;100710.05;1786068;79;21287;-77
2021/07/08 05:10:59;;;;;;;5.37;2.08;;;;;;;22.80;57.90;100715.10;1769756;81;21185;-78
2021/07/08 05:14:06;;;;;;;3.17;1.50;;;;;;;22.91;57.64;100717.02;1790181;79;21331;-77
2021/07/08 05:17:11;;;;;;;9.58;2.17;;;;;;;23.15;58.42;100721.44;1769322;80;21209;-78
2021/07/08 05:20:19;;;;;;;9.25;2.22;;;;;;;23.42;58.46;100726.38;1767248;81;21378;-78
2021/07/08 05:23:26;;;;;;;6.55;1.98;;;;;;;23.71;56.75;100721.62;1768334;81;21339;-79
2021/07/08 05:26:34;;;;;;;4.42;1.98;;;;;;;23.93;56.69;100721.16;1769728;81;21311;-79
2021/07/08 05:29:39;;;;;;;8.98;2.22;;;;;;;24.10;56.18;100724.50;1770827;81;21225;-78
2021/07/08 05:32:46;;;;;;;3.85;1.92;;;;;;;24.17;56.10;100728.80;1769901;81;21390;-78
2021/07/08 05:35:52;;;;;;;4.45;1.70;;;;;;;24.26;55.50;100725.56;1779354;79;21251;-78
2021/07/08 05:38:59;;;;;;;8.05;2.20;;;;;;;24.30;54.91;100726.75;1775449;79;21292;-78
2021/07/08 05:42:03;;;;;;;8.73;2.40;;;;;;;24.34;55.07;100731.57;1779197;79;21315;-78
2021/07/08 05:45:09;;;;;;;3.30;1.80;;;;;;;24.44;54.87;100728.95;1779530;79;21157;-78
2021/07/08 05:48:14;;;;;;;7.72;1.80;;;;;;;24.52;55.03;100730.47;1776554;79;21318;-78
2021/07/08 05:51:19;;;;;;;8.43;2.22;;;;;;;24.64;54.68;100727.53;1774252;79;21240;-78
2021/07/08 05:54:23;;;;;;;8.98;2.30;;;;;;;24.70;54.50;100733.48;1771952;79;21239;-78
2021/07/08 05:57:28;;;;;;;6.70;2.10;;;;;;;24.71;54.84;100731.00;1775688;79;21251;-78
2021/07/08 06:00:34;;;;;;;5.50;2.15;;;;;;;24.82;54.67;100725.81;1778774;79;21287;-79
2021/07/08 06:03:39;;;;;;;4.62;1.90;;;;;;;24.98;53.78;100733.83;1774726;79;21279;-78
2021/07/08 06:06:44;;;;;;;12.25;2.27;;;;;;;25.04;52.32;100731.96;1770668;79;21272;-78
2021/07/08 06:09:49;;;;;;;9.58;2.20;;;;;;;25.07;53.72;100736.48;1770558;79;21279;-78
2021/07/08 06:12:56;;;;;;;7.50;2.10;;;;;;;25.14;53.53;100735.75;1772581;79;21160;-79
2021/07/08 06:16:01;;;;;;;5.70;2.08;;;;;;;25.21;52.99;100743.37;1776312;79;21181;-78
2021/07/08 06:19:06;;;;;;;6.20;2.25;;;;;;;25.21;52.72;100744.77;1777767;79;21926;-78
2021/07/08 06:22:12;;;;;;;4.42;2.05;;;;;;;25.18;52.73;100743.91;1780781;79;21278;-78
2021/07/08 06:25:19;;;;;;;7.03;2.25;;;;;;;25.14;53.34;100742.74;1778100;80;21295;-79
2021/07/08 06:28:26;;;;;;;7.75;2.05;;;;;;;25.11;52.77;100739.06;1777132;80;21763;-78
2021/07/08 06:31:32;;;;;;;4.28;2.33;;;;;;;25.12;52.37;100745.50;1781725;79;21326;-79
2021/07/08 06:34:38;;;;;;;6.70;2.10;;;;;;;25.19;52.93;100734.96;1783420;79;21834;-78
2021/07/08 06:37:43;;;;;;;5.85;2.80;;;;;;;25.26;52.51;100738.94;1783468;79;21236;-78
2021/07/08 06:40:50;;;;;;;8.45;2.20;;;;;;;25.38;53.40;100746.64;1778181;80;21292;-79
2021/07/08 06:43:55;;;;;;;6.87;1.82;;;;;;;25.49;51.54;100744.22;1778094;80;21279;-78
2021/07/08 06:47:02;;;;;;;7.28;2.02;;;;;;;25.56;52.09;100739.83;1788416;79;21708;-78
2021/07/08 06:50:08;;;;;;;3.58;1.60;;;;;;;25.63;52.23;100744.08;1778194;79;21338;-78
2021/07/08 06:53:13;;;;;;;6.75;2.12;;;;;;;25.71;51.52;100747.80;1789249;79;21259;-79
2021/07/08 06:56:19;;;;;;;6.10;2.10;;;;;;;25.80;51.59;100744.55;1781056;79;21130;-79
2021/07/08 06:59:24;;;;;;;4.97;2.25;;;;;;;25.85;50.97;100743.20;1778692;79;21792;-78
2021/07/08 07:02:29;;;;;;;9.10;2.10;;;;;;;25.97;50.62;100746.64;1778699;80;21248;-79
2021/07/08 07:05:35;;;;;;;9.65;2.10;;;;;;;26.08;51.96;100748.99;1787434;79;21362;-78
2021/07/08 07:08:42;;;;;;;8.13;2.37;;;;;;;26.25;51.88;100765.95;1789544;79;21208;-78
2021/07/08 07:11:47;;;;;;;6.58;2.17;;;;;;;26.30;50.06;100756.73;1799447;79;21878;-78
2021/07/08 07:14:54;;;;;;;3.35;2.08;;;;;;;26.36;50.00;100759.00;1802139;79;21291;-78
2021/07/08 07:18:04;;;;;;;8.60;2.42;;;;;;;26.46;49.87;100760.50;1778241;79;21369;-79
2021/07/08 07:21:11;;;;;;;13.48;2.27;;;;;;;26.50;49.48;100752.67;1777976;80;21323;-78
2021/07/08 07:24:18;;;;;;;2.33;1.67;;;;;;;26.60;49.97;100761.70;1783845;80;21807;-78
2021/07/08 07:27:23;;;;;;;5.58;2.10;;;;;;;26.65;48.12;100754.72;1763142;81;21307;-78
2021/07/08 07:30:31;;;;;;;6.00;2.33;;;;;;;26.71;48.74;100760.62;1780970;80;21332;-78
2021/07/08 07:33:37;;;;;;;8.20;2.72;;;;;;;26.75;48.68;100754.77;1789307;80;21576;-79
2021/07/08 07:36:42;;;;;;;9.58;2.37;;;;;;;26.89;49.09;100759.88;1763098;80;21290;-79
2021/07/08 07:39:48;;;;;;;6.10;2.22;;;;;;;27.01;47.08;100760.51;1762049;80;21874;-78
2021/07/08 07:42:54;;;;;;;5.17;2.08;;;;;;;27.07;47.42;100767.81;1773020;80;21324;-79
2021/07/08 07:46:02;;;;;;;4.55;2.30;;;;;;;27.05;47.54;100763.59;1773456;80;21284;-78
2021/07/08 07:49:08;;;;;;;4.60;2.00;;;;;;;27.08;47.41;100758.84;1777897;80;21264;-78
2021/07/08 07:52:16;;;;;;;8.58;1.82;;;;;;;27.17;49.21;100767.88;1778976;80;21295;-79
2021/07/08 07:55:21;;;;;;;4.72;1.80;;;;;;;27.24;46.15;100758.66;1775353;80;21273;-79
2021/07/08 07:58:27;;;;;;;6.08;1.65;;;;;;;27.32;48.01;100771.86;1762601;81;21335;-78
2021/07/08 08:01:33;;;;;;;5.35;1.92;;;;;;;27.34;47.34;100757.84;1767860;80;21966;-79
2021/07/08 08:11:23;;;;;;;6.58;1.60;;;;;;;27.53;45.59;100755.34;1783669;80;21182;-78
2021/07/08 08:14:31;;;;;;;8.73;2.20;;;;;;;27.61;46.13;100763.20;1774623;80;21196;-79
2021/07/08 08:17:36;;;;;;;5.53;1.77;;;;;;;27.66;46.17;100765.17;1777785;80;21287;-79
2021/07/08 08:20:43;;;;;;;6.97;2.30;;;;;;;27.71;46.75;100766.59;1774760;80;21368;-78
2021/07/08 08:23:50;;;;;;;5.58;2.12;;;;;;;27.77;46.04;100761.31;1771108;81;21307;-79
2021/07/08 08:26:56;;;;;;;6.67;1.57;;;;;;;27.85;46.07;100761.30;1768216;81;21152;-79
2021/07/08 08:30:01;;;;;;;3.65;1.77;;;;;;;27.95;47.38;100769.75;1768757;81;21288;-78
2021/07/08 08:33:06;;;;;;;6.70;1.82;;;;;;;28.02;45.20;100767.48;1773916;81;21790;-78
2021/07/08 08:36:13;;;;;;;10.50;1.90;;;;;;;28.05;45.99;100775.38;1767716;81;21192;-79
2021/07/08 08:39:18;;;;;;;9.08;2.02;;;;;;;28.08;45.83;100763.54;1774954;81;21874;-79
2021/07/08 08:42:25;;;;;;;8.20;2.02;;;;;;;28.09;45.63;100765.78;1775461;81;21869;-79
2021/07/08 08:45:30;;;;;;;8.60;1.72;;;;;;;28.12;45.31;100761.02;1773382;81;21700;-79
2021/07/08 08:55:38;;;;;;;2.20;1.50;;;;;;;28.15;46.16;100761.30;1773440;81;21711;-79
2021/07/08 08:58:44;;;;;;;9.33;1.73;;;;;;;28.18;45.85;100759.34;1744899;82;21239;-79
2021/07/08 09:01:49;;;;;;;5.33;1.60;;;;;;;28.25;45.25;100762.69;1748655;80;21330;-79
2021/07/08 09:04:55;;;;;;;5.97;1.55;;;;;;;28.25;45.57;100752.84;1738840;82;21312;-78
2021/07/08 09:08:03;;;;;;;3.35;1.47;;;;;;;28.25;45.38;100757.06;1744912;82;21914;-79
2021/07/08 09:11:26;;;;;;;5.73;1.70;;;;;;;28.24;44.88;100758.20;1743429;82;21207;-78
2021/07/08 09:14:32;;;;;;;4.75;1.72;;;;;;;28.22;45.94;100758.19;1744690;82;21290;-78
2021/07/08 09:17:43;;;;;;;8.53;1.50;;;;;;;28.21;45.42;100757.91;1746772;80;21259;-78
2021/07/08 09:20:49;;;;;;;7.47;1.75;;;;;;;28.24;44.92;100758.20;1707595;84;21226;-78
2021/07/08 09:24:13;;;;;;;4.25;1.30;;;;;;;28.25;44.52;100754.25;1694706;84;21340;-78
2021/07/08 09:27:19;;;;;;;7.75;1.45;;;;;;;28.27;44.12;100756.20;1729135;82;21315;-79
2021/07/08 09:30:34;;;;;;;9.18;1.47;;;;;;;28.29;44.43;100762.97;1718646;83;21771;-79
2021/07/08 09:33:46;;;;;;;7.85;1.55;;;;;;;28.27;42.82;100761.83;1750758;81;21924;-79
2021/07/08 09:36:52;;;;;;;24.20;2.12;;;;;;;28.30;44.25;100763.81;1741744;82;21350;-78
2021/07/08 09:40:02;;;;;;;4.67;1.32;;;;;;;28.33;44.87;100768.31;1704709;83;21857;-79
2021/07/08 09:43:08;;;;;;;6.53;1.40;;;;;;;28.39;43.86;100765.80;1720061;83;21795;-79
2021/07/08 09:46:14;;;;;;;12.13;2.00;;;;;;;28.39;43.86;100765.80;1707107;84;21933;-79
2021/07/08 09:49:20;;;;;;;1.95;1.25;;;;;;;28.45;43.30;100769.44;1704725;83;21181;-79
2021/07/08 09:52:25;;;;;;;11.22;2.02;;;;;;;28.46;42.56;100763.52;1737638;82;21340;-79
2021/07/08 09:55:33;;;;;;;10.70;1.57;;;;;;;28.52;40.89;100762.97;1709670;83;21880;-78
2021/07/08 09:58:39;;;;;;;4.62;1.60;;;;;;;28.58;43.21;100763.22;1711132;83;21499;-77
2021/07/08 10:01:46;;;;;;;3.52;1.25;;;;;;;28.63;41.57;100756.73;1740212;81;21283;-78
2021/07/08 10:04:52;;;;;;;7.08;1.50;;;;;;;28.67;40.37;100759.27;1728212;82;21295;-78
2021/07/08 10:07:58;;;;;;;3.30;1.75;;;;;;;28.70;40.82;100758.13;1722937;82;21208;-78
2021/07/08 10:11:05;;;;;;;2.58;1.07;;;;;;;28.78;41.91;100756.11;1728269;82;21188;-78
2021/07/08 10:14:11;;;;;;;5.30;1.77;;;;;;;28.81;39.55;100756.12;1724060;82;21261;-78
2021/07/08 10:17:16;;;;;;;3.70;1.40;;;;;;;28.80;40.52;100757.83;1722591;82;21843;-78
2021/07/08 10:20:25;;;;;;;5.53;1.52;;;;;;;28.84;40.14;100747.65;1715829;83;21345;-79
2021/07/08 10:23:34;;;;;;;3.47;1.50;;;;;;;28.85;39.57;100743.73;1713981;82;21267;-79
2021/07/08 10:26:37;;;;;;;2.25;1.20;;;;;;;28.93;40.21;100751.55;1726652;82;21286;-79
2021/07/08 10:29:50;;;;;;;5.05;1.40;;;;;;;28.96;38.90;100748.20;1729803;82;21279;-79
2021/07/08 10:33:05;;;;;;;10.63;1.40;;;;;;;28.97;38.59;100756.92;1737666;80;21822;-79
2021/07/08 10:36:12;;;;;;;5.05;1.50;;;;;;;28.95;38.48;100747.94;1777186;80;21183;-78
2021/07/08 10:39:21;;;;;;;3.45;1.50;;;;;;;28.94;36.99;100751.86;1778431;80;21279;-79
2021/07/08 10:42:49;;;;;;;3.20;1.40;;;;;;;28.89;38.58;100745.68;1787253;79;21568;-79
2021/07/08 10:45:55;;;;;;;10.88;1.55;;;;;;;28.89;37.79;100753.25;1780703;80;21129;-79
2021/07/08 10:49:01;;;;;;;3.35;1.35;;;;;;;28.86;38.32;100751.87;1780296;80;21294;-78
2021/07/08 10:52:07;;;;;;;4.53;1.15;;;;;;;28.85;39.90;100754.98;1781528;79;21987;-78
2021/07/08 10:55:13;;;;;;;5.05;1.42;;;;;;;28.91;39.66;100756.08;1791822;79;21342;-79
2021/07/08 10:58:57;;;;;;;7.10;1.17;;;;;;;28.91;39.66;100756.08;1780201;80;21276;-79
2021/07/08 11:02:02;;;;;;;6.20;1.30;;;;;;;28.90;38.96;100747.92;1785528;79;21239;-79
2021/07/08 11:05:07;;;;;;;1.52;0.90;;;;;;;28.97;38.34;100749.88;1781180;80;21807;-79
2021/07/08 11:08:13;;;;;;;3.05;1.60;;;;;;;28.97;38.34;100749.88;1780240;79;21232;-79
2021/07/08 11:11:29;;;;;;;4.15;1.30;;;;;;;29.05;37.81;100749.86;1783504;79;21890;-79
2021/07/08 11:14:35;;;;;;;5.03;1.25;;;;;;;29.05;37.81;100749.86;1785184;79;21306;-79
2021/07/08 11:17:52;;;;;;;5.83;1.25;;;;;;;29.05;38.14;100761.96;1793702;79;21271;-79
2021/07/08 11:20:57;;;;;;;6.30;1.35;;;;;;;29.02;37.04;100756.90;1799522;79;21350;-79
2021/07/08 11:24:02;;;;;;;6.05;1.10;;;;;;;29.02;37.04;100756.90;1795157;80;21904;-79
2021/07/08 11:27:15;;;;;;;2.35;1.10;;;;;;;29.01;33.75;100749.59;1763797;80;21210;-79
2021/07/08 11:30:28;;;;;;;7.22;1.50;;;;;;;28.99;34.33;100746.23;1783037;80;21594;-79
2021/07/08 11:33:37;;;;;;;3.62;1.20;;;;;;;29.00;34.42;100745.09;1783718;79;21828;-79
2021/07/08 11:36:43;;;;;;;4.00;1.32;;;;;;;28.98;33.69;100738.89;1782814;79;21739;-79
2021/07/08 11:39:49;;;;;;;1.12;0.80;;;;;;;28.97;35.23;100754.95;1782537;80;21204;-79
2021/07/08 11:42:55;;;;;;;3.85;1.37;;;;;;;28.95;33.27;100745.96;1782900;80;21334;-79
2021/07/08 11:46:04;;;;;;;7.78;1.70;;;;;;;28.95;33.59;100747.37;1790785;79;21306;-79
2021/07/08 11:49:09;;;;;;;9.35;1.57;;;;;;;28.98;34.58;100736.08;1785484;79;21307;-79
2021/07/08 11:52:31;;;;;;;5.78;1.75;;;;;;;29.01;35.62;100738.33;1783432;80;21314;-79
2021/07/08 11:55:36;;;;;;;2.67;1.00;;;;;;;29.00;33.97;100740.88;1789406;79;21291;-79
2021/07/08 11:58:43;;;;;;;2.90;1.10;;;;;;;28.99;34.52;100749.05;1783736;80;21734;-79
2021/07/08 12:01:49;;;;;;;4.22;1.02;;;;;;;28.92;33.07;100735.80;1783532;80;21695;-79
2021/07/08 12:04:54;;;;;;;5.08;1.30;;;;;;;28.87;32.76;100743.70;1811055;79;21267;-79
2021/07/08 12:08:05;;;;;;;4.12;1.10;;;;;;;28.81;33.30;100739.80;1783895;79;21291;-78
2021/07/08 12:11:24;;;;;;;4.42;0.75;;;;;;;28.76;34.16;100732.22;1783941;79;21366;-79
2021/07/08 12:14:30;;;;;;;4.22;1.20;;;;;;;28.78;33.74;100741.20;1782149;80;21278;-79
2021/07/08 12:17:36;;;;;;;13.08;1.65;;;;;;;28.74;34.21;100741.49;1783618;80;21238;-79
2021/07/08 12:20:45;;;;;;;5.33;1.05;;;;;;;28.68;34.92;100737.86;1783854;80;21745;-79
2021/07/08 12:23:47;;;;;;;1.95;0.98;;;;;;;28.64;35.15;100730.28;1782674;79;21810;-79
2021/07/08 12:26:54;;;;;;;8.23;1.27;;;;;;;28.67;34.84;100734.78;1776238;80;21294;-78
2021/07/08 12:30:01;;;;;;;4.75;0.90;;;;;;;28.73;35.92;100731.38;1768100;81;21327;-78
2021/07/08 12:33:17;;;;;;;4.58;1.27;;;;;;;28.74;34.75;100735.86;1767867;80;21344;-78
2021/07/08 12:36:23;;;;;;;4.62;1.20;;;;;;;28.74;33.56;100732.48;1768933;81;21331;-79
2021/07/08 12:39:33;;;;;;;3.77;0.90;;;;;;;28.70;34.69;100731.40;1768958;81;21965;-78
2021/07/08 12:42:41;;;;;;;4.37;0.97;;;;;;;28.68;34.74;100733.64;1779894;79;21810;-78
2021/07/08 12:45:46;;;;;;;2.05;1.00;;;;;;;28.67;33.38;100731.13;1774776;79;22722;-78
2021/07/08 12:48:52;;;;;;;4.22;1.50;;;;;;;28.65;33.91;100731.95;1769207;81;21341;-79
2021/07/08 12:51:58;;;;;;;2.77;1.40;;;;;;;28.64;32.85;100727.46;1769219;79;21364;-78
2021/07/08 12:55:04;;;;;;;3.25;1.05;;;;;;;28.63;34.30;100734.23;1769591;79;21966;-79
2021/07/08 12:58:13;;;;;;;3.37;1.20;;;;;;;28.58;34.64;100731.44;1768583;81;21775;-79
2021/07/08 13:01:19;;;;;;;1.60;0.98;;;;;;;28.55;34.23;100720.73;1794418;79;21165;-79
2021/07/08 13:04:25;;;;;;;8.33;1.30;;;;;;;28.56;35.54;100724.69;1799211;79;21836;-78
2021/07/08 13:07:31;;;;;;;6.78;1.12;;;;;;;28.58;36.81;100725.80;1751035;81;21158;-79
2021/07/08 13:10:44;;;;;;;10.20;1.17;;;;;;;28.58;35.78;100727.21;1768212;81;21324;-79
2021/07/08 13:13:51;;;;;;;3.75;1.10;;;;;;;28.58;35.78;100727.21;1768664;81;21297;-78
2021/07/08 13:17:15;;;;;;;3.77;1.30;;;;;;;28.49;35.60;100717.10;1769158;81;22430;-78
2021/07/08 13:20:23;;;;;;;1.85;1.27;;;;;;;28.45;35.77;100725.83;1769095;81;21286;-79
2021/07/08 13:23:31;;;;;;;1.72;0.90;;;;;;;28.41;34.39;100734.56;1747761;81;21348;-78
2021/07/08 13:26:35;;;;;;;13.68;1.50;;;;;;;28.38;34.49;100729.52;1768197;81;21769;-78
2021/07/08 13:29:40;;;;;;;8.30;1.20;;;;;;;28.34;35.34;100726.96;1770015;81;21798;-79
2021/07/08 13:32:45;;;;;;;6.33;1.60;;;;;;;28.28;34.63;100728.38;1770302;81;21265;-78
2021/07/08 13:35:57;;;;;;;3.92;1.60;;;;;;;28.27;34.59;100735.67;1770204;81;21313;-78
2021/07/08 13:39:14;;;;;;;7.00;1.30;;;;;;;28.26;34.93;100735.41;1768245;81;21226;-79
2021/07/08 13:42:19;;;;;;;4.83;1.20;;;;;;;28.23;36.50;100726.98;1769283;81;21343;-78
2021/07/08 13:45:38;;;;;;;1.95;0.98;;;;;;;28.23;34.74;100734.55;1769471;81;21717;-78
2021/07/08 13:48:45;;;;;;;2.85;1.20;;;;;;;28.21;34.65;100729.79;1769284;81;21304;-78
2021/07/08 13:52:01;;;;;;;7.33;0.95;;;;;;;28.15;35.96;100726.15;1770409;81;21250;-79
2021/07/08 13:55:07;;;;;;;1.82;0.80;;;;;;;28.13;35.79;100728.38;1770378;81;21823;-78
2021/07/08 13:58:13;;;;;;;4.87;1.17;;;;;;;28.11;35.70;100734.87;1767789;81;21187;-78
2021/07/08 14:01:18;;;;;;;3.02;1.07;;;;;;;28.10;35.39;100726.16;1769934;81;21364;-78
2021/07/08 14:04:24;;;;;;;2.50;1.10;;;;;;;28.06;36.04;100728.41;1768624;81;21369;-79
2021/07/08 14:07:29;;;;;;;2.00;0.98;;;;;;;28.03;35.95;100724.18;1769270;81;21360;-78
2021/07/08 14:10:36;;;;;;;2.45;1.20;;;;;;;28.02;36.95;100725.31;1770310;81;21257;-79
2021/07/08 14:13:42;;;;;;;3.72;1.07;;;;;;;28.00;36.32;100724.20;1769168;81;21313;-78
2021/07/08 14:16:48;;;;;;;1.90;1.00;;;;;;;27.99;36.34;100727.27;1767749;81;21234;-79
2021/07/08 14:19:54;;;;;;;3.80;1.00;;;;;;;27.97;36.98;100728.13;1767823;81;21717;-79
2021/07/08 14:23:00;;;;;;;7.65;1.10;;;;;;;27.94;35.83;100723.06;1767700;81;21186;-78
2021/07/08 14:26:06;;;;;;;1.87;0.90;;;;;;;27.90;35.76;100723.34;1769146;81;21332;-78
2021/07/08 14:29:12;;;;;;;6.08;1.22;;;;;;;27.91;36.16;100730.67;1773813;80;21923;-78
2021/07/08 14:32:16;;;;;;;7.60;1.10;;;;;;;27.88;35.76;100728.41;1780459;80;21265;-78
2021/07/08 14:35:21;;;;;;;5.47;1.17;;;;;;;27.86;35.64;100728.70;1779222;80;21305;-78
2021/07/08 14:38:26;;;;;;;3.62;0.95;;;;;;;27.85;36.65;100727.00;1779460;80;21194;-78
2021/07/08 14:41:36;;;;;;;1.67;0.80;;;;;;;27.85;36.48;100731.21;1778989;80;21793;-78